Bei Facebook empfehlenBei Twitter postenGoogle plusPinterest

Das Wetter im Erzgebirge am 13.04.2017

Wetter und Klima am 13.04.2017 Holzhau im Erzgebirge (630m ü.NN)
Letzte gemessene Temperatur und Uhrzeit der Messung23:45:00 Uhr4.30 °C
Temperatur (Maximum / Höchstwert) und Uhrzeit der Messung16:45:00 Uhr8.10 °C
Temperatur (Minimum / Tiefstwert) und Uhrzeit der Messung09:30:001.60 °C
Errechneter Absolutwert der Temperaturschwankungen zwischen Tmin und Tmax des Tages6.50 K
Errechnete Tagesmitteltemperatur5.16979 °C
Gesamt - Niederschlag des Tages (in flüssiger Form)4.66 Liter / m²
Luftdruck (Maximum / Höchstwert) und Zeitpunkt der Messung23:45:00 Uhr1009.00 hPa
Luftdruck (Minimum / Tiefstwert) und Zeitpunkt der Messung06:15:00 Uhr1005.50 hPa
Errechneter Absolutwert der Luftdruckschwankungen des Tages3.50 hPa
Höchste gemessene Windgeschwindigkeit und Uhrzeit der Messung03:30:00 Uhr183.60 km/h
Errechnete Windhäufigkeit in Relation zu den Messwerten des Tages40.62500 %
Niedrigste Windkühle (Windchill) und Zeitpunkt der Messung03:30:00 Uhr-5.80 °C
Taupunkt (Maximum / Höchstwert) und Uhrzeit der Messung00:30:00 Uhr4.80 °C
Taupunkt (Minimum / Tiefstwert) und Uhrzeit der Messung09:30:000.60 °C
Anzahl der automatisch eingelesenen Messwerte 96

Detaillierte Wetter- und Klima- Messwerte für den 13.04.2017 in Holzhau im Erzgebirge (630m ü.NN)
ZeitTemperaturLuftdruckRel. LuftfeuchteWindWindrichtungWindchillTaupunktNiederschlag l/m²
23:45:004.30 °C1009.00 hPa85.00 %1.08 km/hW4.30 °C2.00 °C4.66
23:30:004.40 °C1008.90 hPa84.00 %1.90 °C4.66
23:15:004.40 °C1008.90 hPa84.00 %1.90 °C4.66
23:00:004.40 °C1008.80 hPa84.00 %1.90 °C4.66
22:45:004.50 °C1008.90 hPa85.00 %2.20 °C4.66
22:30:004.60 °C1008.80 hPa86.00 %2.50 °C4.66
22:15:004.70 °C1008.90 hPa87.00 %2.70 °C4.66
22:00:004.70 °C1008.70 hPa87.00 %2.70 °C4.66
21:45:004.80 °C1008.80 hPa87.00 %2.80 °C4.66
21:30:004.80 °C1008.80 hPa86.00 %2.70 °C4.66
21:15:004.80 °C1009.00 hPa86.00 %2.70 °C4.66
21:00:004.80 °C1008.80 hPa86.00 %2.70 °C4.66
20:45:004.80 °C1008.90 hPa86.00 %2.70 °C4.66
20:30:004.80 °C1008.80 hPa86.00 %2.70 °C4.66
20:15:004.80 °C1008.60 hPa85.00 %2.50 °C4.66
20:00:005.00 °C1008.40 hPa85.00 %2.70 °C4.66
19:45:005.20 °C1008.50 hPa84.00 %2.70 °C4.66
19:30:005.40 °C1008.20 hPa85.00 %3.10 °C4.66
19:15:005.50 °C1008.20 hPa85.00 %3.20 °C4.66
19:00:005.60 °C1008.10 hPa85.00 %3.30 °C4.66
18:45:005.80 °C1008.00 hPa85.00 %3.50 °C4.66
18:30:005.80 °C1008.10 hPa85.00 %1.44 km/hNNW5.80 °C3.50 °C4.66
18:15:005.80 °C1008.20 hPa85.00 %3.50 °C4.66
18:00:005.60 °C1008.10 hPa84.00 %3.10 °C4.66
17:45:005.60 °C1008.20 hPa82.00 %2.80 °C4.66
17:30:006.60 °C1008.00 hPa79.00 %5.76 km/hNNW5.60 °C3.20 °C4.66
17:15:007.40 °C1008.00 hPa76.00 %3.96 km/hSSW7.40 °C3.50 °C4.66
17:00:007.90 °C1007.90 hPa71.00 %1.80 km/hWSW7.90 °C3.00 °C4.66
16:45:008.10 °C1007.80 hPa74.00 %2.16 km/hWSW8.10 °C3.80 °C4.66
16:30:006.40 °C1007.80 hPa80.00 %7.92 km/hW4.80 °C3.20 °C4.66
16:15:005.70 °C1008.10 hPa81.00 %2.70 °C4.66
16:00:006.10 °C1008.30 hPa74.00 %3.96 km/hONO6.10 °C1.80 °C4.66
15:45:006.70 °C1007.90 hPa73.00 %2.20 °C4.66
15:30:007.10 °C1008.10 hPa73.00 %2.88 km/hNW7.10 °C2.60 °C4.66
15:15:007.40 °C1008.00 hPa72.00 %2.70 °C4.66
15:00:007.60 °C1008.30 hPa70.00 %13.32 km/hN5.20 °C2.50 °C4.66
14:45:007.90 °C1008.10 hPa69.00 %6.84 km/hNW6.80 °C2.60 °C4.66
14:30:007.30 °C1008.40 hPa71.00 %7.92 km/hW5.90 °C2.40 °C4.66
14:15:008.10 °C1008.30 hPa71.00 %3.20 °C4.66
14:00:007.50 °C1008.70 hPa73.00 %2.16 km/hNNW7.50 °C3.00 °C4.66
13:45:007.90 °C1008.60 hPa70.00 %2.80 °C4.66
13:30:007.70 °C1008.60 hPa76.00 %2.52 km/hW7.70 °C3.70 °C4.66
13:15:007.40 °C1008.70 hPa78.00 %2.88 km/hWNW7.40 °C3.80 °C4.66
13:00:007.20 °C1008.60 hPa79.00 %8.28 km/hN5.70 °C3.80 °C4.66
12:45:007.00 °C1008.30 hPa82.00 %4.10 °C4.66
12:30:006.90 °C1008.30 hPa80.00 %3.70 °C4.66
12:15:007.40 °C1008.40 hPa81.00 %4.68 km/hNW7.40 °C4.40 °C4.66
12:00:007.00 °C1008.40 hPa82.00 %1.44 km/hNNW7.00 °C4.10 °C4.66
11:45:006.60 °C1008.40 hPa87.00 %4.60 °C4.66
11:30:005.90 °C1008.40 hPa88.00 %10.08 km/hNW3.70 °C4.10 °C4.66
11:15:005.00 °C1008.20 hPa92.00 %3.80 °C4.66
11:00:004.10 °C1008.10 hPa93.00 %3.10 °C4.66
10:45:003.40 °C1008.00 hPa94.00 %2.50 °C4.66
10:30:002.70 °C1008.00 hPa94.00 %1.80 °C4.66
10:15:002.30 °C1007.80 hPa94.00 %1.40 °C4.66
10:00:001.90 °C1007.60 hPa94.00 %1.00 °C4.66
09:45:001.80 °C1007.60 hPa94.00 %0.90 °C4.66
09:30:001.60 °C1007.50 hPa93.00 %0.60 °C4.66
09:15:001.60 °C1007.50 hPa93.00 %1.44 km/hW1.60 °C0.60 °C4.14
09:00:001.90 °C1007.30 hPa93.00 %0.90 °C3.62
08:45:002.20 °C1007.10 hPa93.00 %1.20 °C3.62
08:30:002.30 °C1006.80 hPa93.00 %1.08 km/hWSW2.30 °C1.30 °C3.11
08:15:002.40 °C1006.60 hPa92.00 %1.20 °C2.59
08:00:002.70 °C1006.60 hPa91.00 %1.40 °C2.07
07:45:004.50 °C1006.30 hPa94.00 %4.32 km/hNW4.50 °C3.60 °C1.55
07:30:004.60 °C1005.90 hPa94.00 %2.16 km/hW4.60 °C3.70 °C1.03
07:15:004.50 °C1005.80 hPa94.00 %3.60 °C1.03
07:00:004.50 °C1005.80 hPa94.00 %1.44 km/hWNW4.50 °C3.60 °C0.52
06:45:004.50 °C1005.80 hPa93.00 %3.60 km/hWNW4.50 °C3.50 °C0.52
06:30:004.50 °C1005.80 hPa93.00 %3.50 °C0.52
06:15:004.40 °C1005.50 hPa93.00 %3.40 °C0.52
06:00:004.40 °C1005.60 hPa94.00 %3.50 °C0.52
05:45:004.50 °C1005.70 hPa94.00 %3.60 °C0.52
05:30:004.50 °C1005.80 hPa94.00 %3.60 °C0.52
05:15:004.50 °C1005.60 hPa94.00 %2.52 km/hNW4.50 °C3.60 °C0.52
05:00:004.50 °C1005.60 hPa94.00 %5.04 km/hWNW3.50 °C3.60 °C0.52
04:45:004.50 °C1005.70 hPa94.00 %3.60 °C0.52
04:30:004.40 °C1005.90 hPa94.00 %1.80 km/hWNW4.40 °C3.50 °C0.52
04:15:004.50 °C1005.90 hPa94.00 %3.60 °C0.52
04:00:004.60 °C1006.00 hPa93.00 %2.52 km/hNNW4.60 °C3.60 °C0.52
03:45:004.60 °C1006.00 hPa93.00 %2.52 km/hNW4.60 °C3.60 °C0.52
03:30:004.70 °C1006.00 hPa93.00 %183.60 km/hNW-5.80 °C3.70 °C0.52
03:15:004.80 °C1005.90 hPa93.00 %3.80 °C0.52
03:00:004.90 °C1006.10 hPa93.00 %1.08 km/hWNW4.90 °C3.90 °C0.52
02:45:005.00 °C1006.20 hPa93.00 %5.04 km/hNW4.10 °C4.00 °C0.52
02:30:005.00 °C1006.20 hPa93.00 %8.64 km/hN3.00 °C4.00 °C0.52
02:15:005.20 °C1006.20 hPa93.00 %5.76 km/hNNW4.00 °C4.20 °C0.52
02:00:005.30 °C1006.40 hPa93.00 %4.30 °C0.52
01:45:005.40 °C1006.40 hPa93.00 %1.44 km/hW5.40 °C4.40 °C0.52
01:30:005.60 °C1006.40 hPa93.00 %4.32 km/hSW5.60 °C4.60 °C0.52
01:15:005.60 °C1006.30 hPa93.00 %6.12 km/hW4.40 °C4.60 °C 
01:00:005.60 °C1006.40 hPa93.00 %2.88 km/hW5.60 °C4.60 °C 
00:45:005.70 °C1006.60 hPa93.00 %4.70 °C 
00:30:005.80 °C1006.70 hPa93.00 %4.80 °C 
00:15:005.80 °C1006.90 hPa93.00 %4.80 °C 
00:00:005.80 °C1006.80 hPa93.00 %4.80 °C 

Permanenter Link zu dieser Seite: Wetter im Erzgebirge am 13.04.2017
Performance-Info: Die Erstellung der Seite / Statistik(en) / Tabelle(n) erforderte 5 Datenbankserver-Abfrage(n) und dauerte 96 Millisekunden. (Dieser Messwert ist von der Gesamt-Auslastung des Servers abhängig.)
Erzgebirge - Wetter | Erzgebirge - Wetter (Mobilgeräte) | Komplette Klimadatenbank